sensor_id;sensor_type;location;lat;lon;timestamp;P1;durP1;ratioP1;P2;durP2;ratioP2
15929;SDS011;8064;51.142;4.780;2023-11-21T00:01:37;13.67;;;10.07;;
15929;SDS011;8064;51.142;4.780;2023-11-21T00:04:03;13.03;;;9.97;;
15929;SDS011;8064;51.142;4.780;2023-11-21T00:06:29;15.00;;;10.10;;
15929;SDS011;8064;51.142;4.780;2023-11-21T00:08:55;14.23;;;10.17;;
15929;SDS011;8064;51.142;4.780;2023-11-21T00:11:21;15.60;;;10.10;;
15929;SDS011;8064;51.142;4.780;2023-11-21T00:13:47;18.87;;;11.17;;
15929;SDS011;8064;51.142;4.780;2023-11-21T00:16:13;14.80;;;9.83;;
15929;SDS011;8064;51.142;4.780;2023-11-21T00:18:38;14.30;;;9.40;;
15929;SDS011;8064;51.142;4.780;2023-11-21T00:21:04;13.43;;;8.80;;
15929;SDS011;8064;51.142;4.780;2023-11-21T00:23:30;18.20;;;10.57;;
15929;SDS011;8064;51.142;4.780;2023-11-21T00:25:56;16.63;;;9.93;;
15929;SDS011;8064;51.142;4.780;2023-11-21T00:28:22;12.97;;;9.00;;
15929;SDS011;8064;51.142;4.780;2023-11-21T00:30:47;15.00;;;9.67;;
15929;SDS011;8064;51.142;4.780;2023-11-21T00:33:13;16.13;;;10.13;;
15929;SDS011;8064;51.142;4.780;2023-11-21T00:35:39;19.30;;;10.23;;
15929;SDS011;8064;51.142;4.780;2023-11-21T00:38:05;17.03;;;9.40;;
15929;SDS011;8064;51.142;4.780;2023-11-21T00:40:30;20.60;;;11.07;;
15929;SDS011;8064;51.142;4.780;2023-11-21T00:42:56;18.83;;;9.87;;
15929;SDS011;8064;51.142;4.780;2023-11-21T00:45:22;19.33;;;10.60;;
15929;SDS011;8064;51.142;4.780;2023-11-21T00:47:47;16.57;;;10.13;;
15929;SDS011;8064;51.142;4.780;2023-11-21T00:50:13;24.87;;;10.87;;
15929;SDS011;8064;51.142;4.780;2023-11-21T00:52:39;34.77;;;11.90;;
15929;SDS011;8064;51.142;4.780;2023-11-21T00:55:05;29.37;;;13.40;;
15929;SDS011;8064;51.142;4.780;2023-11-21T00:57:32;43.43;;;14.00;;
15929;SDS011;8064;51.142;4.780;2023-11-21T00:59:58;30.30;;;14.67;;
15929;SDS011;8064;51.142;4.780;2023-11-21T01:02:25;37.83;;;14.90;;
15929;SDS011;8064;51.142;4.780;2023-11-21T01:04:51;42.33;;;14.20;;
15929;SDS011;8064;51.142;4.780;2023-11-21T01:07:17;60.53;;;14.67;;
15929;SDS011;8064;51.142;4.780;2023-11-21T01:09:45;84.03;;;16.27;;
15929;SDS011;8064;51.142;4.780;2023-11-21T01:12:11;84.47;;;18.57;;
15929;SDS011;8064;51.142;4.780;2023-11-21T01:14:37;75.67;;;18.10;;
15929;SDS011;8064;51.142;4.780;2023-11-21T01:17:03;85.10;;;18.53;;
15929;SDS011;8064;51.142;4.780;2023-11-21T01:19:29;102.43;;;18.40;;
15929;SDS011;8064;51.142;4.780;2023-11-21T01:21:55;77.07;;;18.43;;
15929;SDS011;8064;51.142;4.780;2023-11-21T01:24:23;65.43;;;18.13;;
15929;SDS011;8064;51.142;4.780;2023-11-21T01:26:48;71.43;;;17.53;;
15929;SDS011;8064;51.142;4.780;2023-11-21T01:29:15;93.90;;;17.70;;
15929;SDS011;8064;51.142;4.780;2023-11-21T01:31:41;74.97;;;19.27;;
15929;SDS011;8064;51.142;4.780;2023-11-21T01:34:07;79.13;;;17.50;;
15929;SDS011;8064;51.142;4.780;2023-11-21T01:36:33;57.47;;;18.33;;
15929;SDS011;8064;51.142;4.780;2023-11-21T01:38:59;60.57;;;18.73;;
15929;SDS011;8064;51.142;4.780;2023-11-21T01:41:26;62.37;;;18.43;;
15929;SDS011;8064;51.142;4.780;2023-11-21T01:43:52;48.60;;;17.33;;
15929;SDS011;8064;51.142;4.780;2023-11-21T01:46:19;60.37;;;17.97;;
15929;SDS011;8064;51.142;4.780;2023-11-21T01:48:45;58.03;;;17.67;;
15929;SDS011;8064;51.142;4.780;2023-11-21T01:51:13;67.03;;;19.03;;
15929;SDS011;8064;51.142;4.780;2023-11-21T01:53:39;91.53;;;20.50;;
15929;SDS011;8064;51.142;4.780;2023-11-21T01:56:05;74.80;;;17.43;;
15929;SDS011;8064;51.142;4.780;2023-11-21T01:58:33;52.00;;;16.67;;
15929;SDS011;8064;51.142;4.780;2023-11-21T02:00:58;50.93;;;17.50;;
15929;SDS011;8064;51.142;4.780;2023-11-21T02:03:24;53.37;;;17.37;;
15929;SDS011;8064;51.142;4.780;2023-11-21T02:05:51;58.07;;;17.97;;
15929;SDS011;8064;51.142;4.780;2023-11-21T02:08:18;57.30;;;18.00;;
15929;SDS011;8064;51.142;4.780;2023-11-21T02:10:44;60.50;;;19.90;;
15929;SDS011;8064;51.142;4.780;2023-11-21T02:13:12;57.07;;;18.17;;
15929;SDS011;8064;51.142;4.780;2023-11-21T02:15:38;70.13;;;18.67;;
15929;SDS011;8064;51.142;4.780;2023-11-21T02:18:04;79.53;;;18.30;;
15929;SDS011;8064;51.142;4.780;2023-11-21T02:20:31;56.70;;;19.40;;
15929;SDS011;8064;51.142;4.780;2023-11-21T02:23:02;56.90;;;18.33;;
15929;SDS011;8064;51.142;4.780;2023-11-21T02:25:28;42.90;;;18.27;;
15929;SDS011;8064;51.142;4.780;2023-11-21T02:27:55;36.97;;;17.57;;
15929;SDS011;8064;51.142;4.780;2023-11-21T02:30:22;52.63;;;17.50;;
15929;SDS011;8064;51.142;4.780;2023-11-21T02:32:50;42.37;;;17.67;;
15929;SDS011;8064;51.142;4.780;2023-11-21T02:35:18;41.93;;;18.00;;
15929;SDS011;8064;51.142;4.780;2023-11-21T02:37:46;61.47;;;17.93;;
15929;SDS011;8064;51.142;4.780;2023-11-21T02:40:12;48.07;;;17.90;;
15929;SDS011;8064;51.142;4.780;2023-11-21T02:42:42;32.70;;;18.10;;
15929;SDS011;8064;51.142;4.780;2023-11-21T02:45:08;31.77;;;17.20;;
15929;SDS011;8064;51.142;4.780;2023-11-21T02:47:37;29.37;;;17.20;;
15929;SDS011;8064;51.142;4.780;2023-11-21T02:50:04;34.00;;;17.60;;
15929;SDS011;8064;51.142;4.780;2023-11-21T02:52:32;38.97;;;17.90;;
15929;SDS011;8064;51.142;4.780;2023-11-21T02:54:58;31.73;;;16.97;;
15929;SDS011;8064;51.142;4.780;2023-11-21T02:57:24;52.27;;;17.10;;
15929;SDS011;8064;51.142;4.780;2023-11-21T02:59:50;31.70;;;17.80;;
15929;SDS011;8064;51.142;4.780;2023-11-21T03:02:16;32.00;;;17.83;;
15929;SDS011;8064;51.142;4.780;2023-11-21T03:04:42;36.67;;;18.87;;
15929;SDS011;8064;51.142;4.780;2023-11-21T03:07:08;33.60;;;18.67;;
15929;SDS011;8064;51.142;4.780;2023-11-21T03:09:34;26.27;;;17.17;;
15929;SDS011;8064;51.142;4.780;2023-11-21T03:12:00;35.53;;;17.40;;
15929;SDS011;8064;51.142;4.780;2023-11-21T03:14:27;27.20;;;18.00;;
15929;SDS011;8064;51.142;4.780;2023-11-21T03:16:52;28.83;;;18.63;;
15929;SDS011;8064;51.142;4.780;2023-11-21T03:19:18;29.70;;;18.43;;
15929;SDS011;8064;51.142;4.780;2023-11-21T03:21:44;31.23;;;17.27;;
15929;SDS011;8064;51.142;4.780;2023-11-21T03:24:09;31.17;;;17.30;;
15929;SDS011;8064;51.142;4.780;2023-11-21T03:26:35;24.67;;;18.30;;
15929;SDS011;8064;51.142;4.780;2023-11-21T03:29:02;33.67;;;18.00;;
15929;SDS011;8064;51.142;4.780;2023-11-21T03:31:28;30.93;;;17.67;;
15929;SDS011;8064;51.142;4.780;2023-11-21T03:33:53;25.37;;;16.73;;
15929;SDS011;8064;51.142;4.780;2023-11-21T03:36:19;26.37;;;18.30;;
15929;SDS011;8064;51.142;4.780;2023-11-21T03:38:45;23.67;;;17.10;;
15929;SDS011;8064;51.142;4.780;2023-11-21T03:41:13;30.53;;;19.73;;
15929;SDS011;8064;51.142;4.780;2023-11-21T03:43:39;30.30;;;18.33;;
15929;SDS011;8064;51.142;4.780;2023-11-21T03:46:05;24.87;;;18.47;;
15929;SDS011;8064;51.142;4.780;2023-11-21T03:48:32;27.90;;;19.07;;
15929;SDS011;8064;51.142;4.780;2023-11-21T03:50:58;30.60;;;17.13;;
15929;SDS011;8064;51.142;4.780;2023-11-21T03:53:24;28.73;;;18.00;;
15929;SDS011;8064;51.142;4.780;2023-11-21T03:55:49;29.23;;;18.87;;
15929;SDS011;8064;51.142;4.780;2023-11-21T03:58:15;28.00;;;19.43;;
15929;SDS011;8064;51.142;4.780;2023-11-21T04:00:41;25.83;;;19.57;;
15929;SDS011;8064;51.142;4.780;2023-11-21T04:03:07;26.20;;;17.80;;
15929;SDS011;8064;51.142;4.780;2023-11-21T04:05:32;26.47;;;19.50;;
15929;SDS011;8064;51.142;4.780;2023-11-21T04:07:58;23.50;;;17.47;;
15929;SDS011;8064;51.142;4.780;2023-11-21T04:10:24;23.73;;;18.13;;
15929;SDS011;8064;51.142;4.780;2023-11-21T04:12:49;21.93;;;16.90;;
15929;SDS011;8064;51.142;4.780;2023-11-21T04:15:15;21.93;;;16.80;;
15929;SDS011;8064;51.142;4.780;2023-11-21T04:17:42;24.77;;;18.33;;
15929;SDS011;8064;51.142;4.780;2023-11-21T04:20:08;22.77;;;17.47;;
15929;SDS011;8064;51.142;4.780;2023-11-21T04:22:41;26.53;;;19.03;;
15929;SDS011;8064;51.142;4.780;2023-11-21T04:25:15;24.37;;;18.13;;
15929;SDS011;8064;51.142;4.780;2023-11-21T04:27:41;26.43;;;18.23;;
15929;SDS011;8064;51.142;4.780;2023-11-21T04:30:09;23.40;;;17.73;;
15929;SDS011;8064;51.142;4.780;2023-11-21T04:32:36;22.27;;;17.57;;
15929;SDS011;8064;51.142;4.780;2023-11-21T04:35:02;23.70;;;18.07;;
15929;SDS011;8064;51.142;4.780;2023-11-21T04:37:29;26.17;;;18.50;;
15929;SDS011;8064;51.142;4.780;2023-11-21T04:39:54;23.63;;;18.03;;
15929;SDS011;8064;51.142;4.780;2023-11-21T04:42:20;24.10;;;17.97;;
15929;SDS011;8064;51.142;4.780;2023-11-21T04:44:46;23.00;;;17.83;;
15929;SDS011;8064;51.142;4.780;2023-11-21T04:47:12;25.20;;;18.63;;
15929;SDS011;8064;51.142;4.780;2023-11-21T04:49:41;24.97;;;18.37;;
15929;SDS011;8064;51.142;4.780;2023-11-21T04:52:07;25.13;;;17.90;;
15929;SDS011;8064;51.142;4.780;2023-11-21T04:54:34;24.83;;;18.37;;
15929;SDS011;8064;51.142;4.780;2023-11-21T04:57:00;29.50;;;18.90;;
15929;SDS011;8064;51.142;4.780;2023-11-21T04:59:26;27.87;;;18.77;;
15929;SDS011;8064;51.142;4.780;2023-11-21T05:01:52;25.20;;;18.47;;
15929;SDS011;8064;51.142;4.780;2023-11-21T05:04:19;25.93;;;17.70;;
15929;SDS011;8064;51.142;4.780;2023-11-21T05:06:47;24.77;;;17.27;;
15929;SDS011;8064;51.142;4.780;2023-11-21T05:09:13;27.93;;;17.77;;
15929;SDS011;8064;51.142;4.780;2023-11-21T05:11:39;25.50;;;18.83;;
15929;SDS011;8064;51.142;4.780;2023-11-21T05:14:05;24.03;;;17.13;;
15929;SDS011;8064;51.142;4.780;2023-11-21T05:16:32;21.40;;;16.20;;
15929;SDS011;8064;51.142;4.780;2023-11-21T05:18:58;23.73;;;17.07;;
15929;SDS011;8064;51.142;4.780;2023-11-21T05:21:26;22.37;;;17.03;;
15929;SDS011;8064;51.142;4.780;2023-11-21T05:23:53;23.07;;;16.97;;
15929;SDS011;8064;51.142;4.780;2023-11-21T05:26:18;24.17;;;17.83;;
15929;SDS011;8064;51.142;4.780;2023-11-21T05:28:44;27.07;;;18.37;;
15929;SDS011;8064;51.142;4.780;2023-11-21T05:31:10;24.93;;;18.57;;
15929;SDS011;8064;51.142;4.780;2023-11-21T05:33:36;24.00;;;17.73;;
15929;SDS011;8064;51.142;4.780;2023-11-21T05:36:02;22.73;;;16.73;;
15929;SDS011;8064;51.142;4.780;2023-11-21T05:38:28;24.93;;;18.47;;
15929;SDS011;8064;51.142;4.780;2023-11-21T05:40:54;25.03;;;17.90;;
15929;SDS011;8064;51.142;4.780;2023-11-21T05:43:20;23.93;;;18.13;;
15929;SDS011;8064;51.142;4.780;2023-11-21T05:45:45;23.10;;;17.27;;
15929;SDS011;8064;51.142;4.780;2023-11-21T05:48:11;25.87;;;17.87;;
15929;SDS011;8064;51.142;4.780;2023-11-21T05:50:37;25.43;;;18.17;;
15929;SDS011;8064;51.142;4.780;2023-11-21T05:53:03;26.40;;;18.93;;
15929;SDS011;8064;51.142;4.780;2023-11-21T05:55:29;23.23;;;17.23;;
15929;SDS011;8064;51.142;4.780;2023-11-21T05:57:54;26.97;;;18.50;;
15929;SDS011;8064;51.142;4.780;2023-11-21T06:00:20;25.03;;;18.03;;
15929;SDS011;8064;51.142;4.780;2023-11-21T06:02:47;25.00;;;17.63;;
15929;SDS011;8064;51.142;4.780;2023-11-21T06:05:17;27.80;;;18.43;;
15929;SDS011;8064;51.142;4.780;2023-11-21T06:07:43;27.47;;;19.07;;
15929;SDS011;8064;51.142;4.780;2023-11-21T06:10:10;27.03;;;19.03;;
15929;SDS011;8064;51.142;4.780;2023-11-21T06:12:38;25.57;;;17.97;;
15929;SDS011;8064;51.142;4.780;2023-11-21T06:15:05;26.70;;;18.87;;
15929;SDS011;8064;51.142;4.780;2023-11-21T06:17:34;28.97;;;18.67;;
15929;SDS011;8064;51.142;4.780;2023-11-21T06:20:03;27.07;;;17.87;;
15929;SDS011;8064;51.142;4.780;2023-11-21T06:22:34;25.57;;;18.03;;
15929;SDS011;8064;51.142;4.780;2023-11-21T06:25:01;28.23;;;17.23;;
15929;SDS011;8064;51.142;4.780;2023-11-21T06:27:29;24.20;;;17.10;;
15929;SDS011;8064;51.142;4.780;2023-11-21T06:29:56;23.63;;;16.93;;
15929;SDS011;8064;51.142;4.780;2023-11-21T06:32:22;29.23;;;18.53;;
15929;SDS011;8064;51.142;4.780;2023-11-21T06:34:47;54.23;;;30.47;;
15929;SDS011;8064;51.142;4.780;2023-11-21T06:37:14;93.63;;;51.57;;
15929;SDS011;8064;51.142;4.780;2023-11-21T06:39:40;47.40;;;28.17;;
15929;SDS011;8064;51.142;4.780;2023-11-21T06:42:06;29.50;;;18.43;;
15929;SDS011;8064;51.142;4.780;2023-11-21T06:44:32;35.10;;;22.80;;
15929;SDS011;8064;51.142;4.780;2023-11-21T06:47:00;49.80;;;30.20;;
15929;SDS011;8064;51.142;4.780;2023-11-21T06:49:26;57.83;;;35.30;;
15929;SDS011;8064;51.142;4.780;2023-11-21T06:51:51;35.03;;;23.77;;
15929;SDS011;8064;51.142;4.780;2023-11-21T06:54:20;45.03;;;26.60;;
15929;SDS011;8064;51.142;4.780;2023-11-21T06:56:46;35.03;;;22.23;;
15929;SDS011;8064;51.142;4.780;2023-11-21T06:59:12;33.27;;;20.47;;
15929;SDS011;8064;51.142;4.780;2023-11-21T07:01:38;36.77;;;23.17;;
15929;SDS011;8064;51.142;4.780;2023-11-21T07:04:04;35.47;;;22.20;;
15929;SDS011;8064;51.142;4.780;2023-11-21T07:06:31;41.53;;;25.13;;
15929;SDS011;8064;51.142;4.780;2023-11-21T07:08:57;34.07;;;21.90;;
15929;SDS011;8064;51.142;4.780;2023-11-21T07:11:23;31.20;;;19.50;;
15929;SDS011;8064;51.142;4.780;2023-11-21T07:13:50;32.13;;;20.60;;
15929;SDS011;8064;51.142;4.780;2023-11-21T07:16:18;32.50;;;20.60;;
15929;SDS011;8064;51.142;4.780;2023-11-21T07:18:44;28.43;;;18.83;;
15929;SDS011;8064;51.142;4.780;2023-11-21T07:21:10;30.03;;;18.80;;
15929;SDS011;8064;51.142;4.780;2023-11-21T07:23:37;24.73;;;18.07;;
15929;SDS011;8064;51.142;4.780;2023-11-21T07:26:03;27.20;;;16.77;;
15929;SDS011;8064;51.142;4.780;2023-11-21T07:28:34;25.73;;;16.13;;
15929;SDS011;8064;51.142;4.780;2023-11-21T07:31:00;24.43;;;16.70;;
15929;SDS011;8064;51.142;4.780;2023-11-21T07:33:26;23.57;;;15.57;;
15929;SDS011;8064;51.142;4.780;2023-11-21T07:35:52;21.77;;;15.33;;
15929;SDS011;8064;51.142;4.780;2023-11-21T07:38:18;24.50;;;16.23;;
15929;SDS011;8064;51.142;4.780;2023-11-21T07:40:44;23.20;;;14.53;;
15929;SDS011;8064;51.142;4.780;2023-11-21T07:43:10;25.13;;;15.73;;
15929;SDS011;8064;51.142;4.780;2023-11-21T07:45:35;29.83;;;17.23;;
15929;SDS011;8064;51.142;4.780;2023-11-21T07:48:01;26.13;;;16.77;;
15929;SDS011;8064;51.142;4.780;2023-11-21T07:50:28;26.97;;;15.70;;
15929;SDS011;8064;51.142;4.780;2023-11-21T07:52:54;26.97;;;17.77;;
15929;SDS011;8064;51.142;4.780;2023-11-21T07:55:20;30.37;;;17.83;;
15929;SDS011;8064;51.142;4.780;2023-11-21T07:57:46;28.17;;;17.60;;
15929;SDS011;8064;51.142;4.780;2023-11-21T08:00:12;28.47;;;18.80;;
15929;SDS011;8064;51.142;4.780;2023-11-21T08:02:40;30.57;;;19.60;;
15929;SDS011;8064;51.142;4.780;2023-11-21T08:05:07;28.23;;;18.33;;
15929;SDS011;8064;51.142;4.780;2023-11-21T08:07:34;28.87;;;18.80;;
15929;SDS011;8064;51.142;4.780;2023-11-21T08:10:00;31.63;;;19.27;;
15929;SDS011;8064;51.142;4.780;2023-11-21T08:12:25;29.80;;;19.23;;
15929;SDS011;8064;51.142;4.780;2023-11-21T08:14:52;29.20;;;18.33;;
15929;SDS011;8064;51.142;4.780;2023-11-21T08:17:18;32.43;;;18.33;;
15929;SDS011;8064;51.142;4.780;2023-11-21T08:19:45;30.13;;;19.37;;
15929;SDS011;8064;51.142;4.780;2023-11-21T08:22:14;33.13;;;19.43;;
15929;SDS011;8064;51.142;4.780;2023-11-21T08:24:42;28.50;;;18.83;;
15929;SDS011;8064;51.142;4.780;2023-11-21T08:27:09;32.27;;;18.67;;
15929;SDS011;8064;51.142;4.780;2023-11-21T08:29:35;30.10;;;18.47;;
15929;SDS011;8064;51.142;4.780;2023-11-21T08:32:01;30.43;;;18.43;;
15929;SDS011;8064;51.142;4.780;2023-11-21T08:34:27;32.30;;;19.80;;
15929;SDS011;8064;51.142;4.780;2023-11-21T08:36:54;31.73;;;18.27;;
15929;SDS011;8064;51.142;4.780;2023-11-21T08:39:20;39.67;;;18.70;;
15929;SDS011;8064;51.142;4.780;2023-11-21T08:41:49;31.77;;;19.57;;
15929;SDS011;8064;51.142;4.780;2023-11-21T08:44:16;29.93;;;18.63;;
15929;SDS011;8064;51.142;4.780;2023-11-21T08:46:43;32.00;;;19.07;;
15929;SDS011;8064;51.142;4.780;2023-11-21T08:49:11;30.10;;;20.50;;
15929;SDS011;8064;51.142;4.780;2023-11-21T08:51:37;40.67;;;21.90;;
15929;SDS011;8064;51.142;4.780;2023-11-21T08:54:03;32.10;;;19.37;;
15929;SDS011;8064;51.142;4.780;2023-11-21T08:56:32;26.63;;;18.87;;
15929;SDS011;8064;51.142;4.780;2023-11-21T08:58:59;34.00;;;18.90;;
15929;SDS011;8064;51.142;4.780;2023-11-21T09:01:27;33.50;;;18.80;;
15929;SDS011;8064;51.142;4.780;2023-11-21T09:03:53;50.73;;;30.20;;
15929;SDS011;8064;51.142;4.780;2023-11-21T09:06:19;45.03;;;26.27;;
15929;SDS011;8064;51.142;4.780;2023-11-21T09:08:45;44.17;;;28.80;;
15929;SDS011;8064;51.142;4.780;2023-11-21T09:11:10;41.33;;;20.20;;
15929;SDS011;8064;51.142;4.780;2023-11-21T09:13:36;38.70;;;20.83;;
15929;SDS011;8064;51.142;4.780;2023-11-21T09:16:03;35.87;;;20.90;;
15929;SDS011;8064;51.142;4.780;2023-11-21T09:18:31;39.00;;;21.27;;
15929;SDS011;8064;51.142;4.780;2023-11-21T09:20:57;43.30;;;22.13;;
15929;SDS011;8064;51.142;4.780;2023-11-21T09:23:23;51.63;;;22.47;;
15929;SDS011;8064;51.142;4.780;2023-11-21T09:25:49;43.27;;;22.07;;
15929;SDS011;8064;51.142;4.780;2023-11-21T09:28:17;42.97;;;21.30;;
15929;SDS011;8064;51.142;4.780;2023-11-21T09:30:43;42.67;;;21.40;;
15929;SDS011;8064;51.142;4.780;2023-11-21T09:33:09;45.17;;;22.20;;
15929;SDS011;8064;51.142;4.780;2023-11-21T09:35:37;43.03;;;21.00;;
15929;SDS011;8064;51.142;4.780;2023-11-21T09:38:03;39.43;;;22.23;;
15929;SDS011;8064;51.142;4.780;2023-11-21T09:40:36;40.27;;;21.27;;
15929;SDS011;8064;51.142;4.780;2023-11-21T09:43:05;41.60;;;21.77;;
15929;SDS011;8064;51.142;4.780;2023-11-21T09:45:35;38.67;;;22.07;;
15929;SDS011;8064;51.142;4.780;2023-11-21T09:48:01;41.27;;;21.87;;
15929;SDS011;8064;51.142;4.780;2023-11-21T09:50:27;40.53;;;21.60;;
15929;SDS011;8064;51.142;4.780;2023-11-21T09:55:22;37.60;;;20.50;;
15929;SDS011;8064;51.142;4.780;2023-11-21T09:57:52;40.47;;;20.40;;
15929;SDS011;8064;51.142;4.780;2023-11-21T10:00:21;36.97;;;20.00;;
15929;SDS011;8064;51.142;4.780;2023-11-21T10:02:49;34.63;;;19.40;;
15929;SDS011;8064;51.142;4.780;2023-11-21T10:05:16;31.40;;;18.83;;
15929;SDS011;8064;51.142;4.780;2023-11-21T10:07:43;26.90;;;16.90;;
15929;SDS011;8064;51.142;4.780;2023-11-21T10:10:10;25.23;;;15.80;;
15929;SDS011;8064;51.142;4.780;2023-11-21T10:12:36;25.47;;;15.53;;
15929;SDS011;8064;51.142;4.780;2023-11-21T10:15:03;20.87;;;14.03;;
15929;SDS011;8064;51.142;4.780;2023-11-21T10:17:35;22.80;;;13.23;;
15929;SDS011;8064;51.142;4.780;2023-11-21T10:20:08;20.40;;;12.50;;
15929;SDS011;8064;51.142;4.780;2023-11-21T10:22:37;18.57;;;12.50;;
15929;SDS011;8064;51.142;4.780;2023-11-21T10:25:06;16.80;;;11.30;;
15929;SDS011;8064;51.142;4.780;2023-11-21T10:27:33;18.43;;;11.87;;
15929;SDS011;8064;51.142;4.780;2023-11-21T10:30:01;18.40;;;11.23;;
15929;SDS011;8064;51.142;4.780;2023-11-21T10:32:29;18.07;;;10.40;;
15929;SDS011;8064;51.142;4.780;2023-11-21T10:35:01;17.97;;;11.57;;
15929;SDS011;8064;51.142;4.780;2023-11-21T10:37:31;17.20;;;11.73;;
15929;SDS011;8064;51.142;4.780;2023-11-21T10:39:59;20.83;;;12.03;;
15929;SDS011;8064;51.142;4.780;2023-11-21T10:42:24;17.80;;;11.63;;
15929;SDS011;8064;51.142;4.780;2023-11-21T10:44:52;19.10;;;12.07;;
15929;SDS011;8064;51.142;4.780;2023-11-21T10:47:21;17.33;;;11.57;;
15929;SDS011;8064;51.142;4.780;2023-11-21T10:49:48;17.23;;;11.60;;
15929;SDS011;8064;51.142;4.780;2023-11-21T10:52:15;17.27;;;11.20;;
15929;SDS011;8064;51.142;4.780;2023-11-21T10:54:43;17.50;;;11.33;;
15929;SDS011;8064;51.142;4.780;2023-11-21T10:57:09;16.10;;;11.50;;
15929;SDS011;8064;51.142;4.780;2023-11-21T10:59:40;16.57;;;10.70;;
15929;SDS011;8064;51.142;4.780;2023-11-21T11:02:12;15.70;;;11.37;;
15929;SDS011;8064;51.142;4.780;2023-11-21T11:04:47;15.50;;;10.23;;
15929;SDS011;8064;51.142;4.780;2023-11-21T11:07:13;13.77;;;10.47;;
15929;SDS011;8064;51.142;4.780;2023-11-21T11:09:41;12.37;;;9.97;;
15929;SDS011;8064;51.142;4.780;2023-11-21T11:12:09;12.20;;;10.00;;
15929;SDS011;8064;51.142;4.780;2023-11-21T11:14:35;12.83;;;9.37;;
15929;SDS011;8064;51.142;4.780;2023-11-21T11:17:01;10.67;;;8.53;;
15929;SDS011;8064;51.142;4.780;2023-11-21T11:19:29;13.50;;;10.07;;
15929;SDS011;8064;51.142;4.780;2023-11-21T11:27:11;12.87;;;9.33;;
15929;SDS011;8064;51.142;4.780;2023-11-21T11:35:34;13.33;;;8.30;;
15929;SDS011;8064;51.142;4.780;2023-11-21T11:38:03;11.60;;;8.13;;
15929;SDS011;8064;51.142;4.780;2023-11-21T11:40:39;8.23;;;6.63;;
15929;SDS011;8064;51.142;4.780;2023-11-21T11:43:07;6.90;;;5.93;;
15929;SDS011;8064;51.142;4.780;2023-11-21T11:45:33;8.37;;;6.13;;
15929;SDS011;8064;51.142;4.780;2023-11-21T11:48:02;10.03;;;6.97;;
15929;SDS011;8064;51.142;4.780;2023-11-21T11:50:28;9.47;;;5.83;;
15929;SDS011;8064;51.142;4.780;2023-11-21T11:52:55;9.63;;;6.13;;
15929;SDS011;8064;51.142;4.780;2023-11-21T11:55:36;8.30;;;5.77;;
15929;SDS011;8064;51.142;4.780;2023-11-21T11:58:04;8.87;;;6.70;;
15929;SDS011;8064;51.142;4.780;2023-11-21T12:03:02;7.70;;;6.43;;
15929;SDS011;8064;51.142;4.780;2023-11-21T12:05:31;9.30;;;6.77;;
15929;SDS011;8064;51.142;4.780;2023-11-21T12:08:02;9.17;;;7.13;;
15929;SDS011;8064;51.142;4.780;2023-11-21T12:10:30;8.63;;;6.67;;
15929;SDS011;8064;51.142;4.780;2023-11-21T12:12:58;8.10;;;6.00;;
15929;SDS011;8064;51.142;4.780;2023-11-21T12:15:26;7.33;;;5.40;;
15929;SDS011;8064;51.142;4.780;2023-11-21T12:17:58;6.90;;;5.73;;
15929;SDS011;8064;51.142;4.780;2023-11-21T12:20:25;7.67;;;5.43;;
15929;SDS011;8064;51.142;4.780;2023-11-21T12:22:53;6.27;;;5.10;;
15929;SDS011;8064;51.142;4.780;2023-11-21T12:25:23;5.63;;;5.10;;
15929;SDS011;8064;51.142;4.780;2023-11-21T12:27:54;5.83;;;5.23;;
15929;SDS011;8064;51.142;4.780;2023-11-21T12:30:22;5.93;;;4.60;;
15929;SDS011;8064;51.142;4.780;2023-11-21T12:32:49;4.87;;;4.37;;
15929;SDS011;8064;51.142;4.780;2023-11-21T12:35:16;4.87;;;4.30;;
15929;SDS011;8064;51.142;4.780;2023-11-21T12:37:44;5.87;;;4.30;;
15929;SDS011;8064;51.142;4.780;2023-11-21T12:40:12;5.17;;;3.83;;
15929;SDS011;8064;51.142;4.780;2023-11-21T12:42:40;6.13;;;3.93;;
15929;SDS011;8064;51.142;4.780;2023-11-21T12:47:43;3.00;;;2.57;;
15929;SDS011;8064;51.142;4.780;2023-11-21T12:50:10;5.13;;;2.20;;
15929;SDS011;8064;51.142;4.780;2023-11-21T12:52:41;3.60;;;2.30;;
15929;SDS011;8064;51.142;4.780;2023-11-21T12:55:12;3.00;;;2.37;;
15929;SDS011;8064;51.142;4.780;2023-11-21T12:57:41;4.03;;;2.57;;
15929;SDS011;8064;51.142;4.780;2023-11-21T13:00:08;4.67;;;2.70;;
15929;SDS011;8064;51.142;4.780;2023-11-21T13:02:38;3.77;;;3.03;;
15929;SDS011;8064;51.142;4.780;2023-11-21T13:05:07;4.20;;;3.80;;
15929;SDS011;8064;51.142;4.780;2023-11-21T13:07:43;4.00;;;3.20;;
15929;SDS011;8064;51.142;4.780;2023-11-21T13:10:12;4.50;;;3.43;;
15929;SDS011;8064;51.142;4.780;2023-11-21T13:12:45;9.00;;;4.07;;
15929;SDS011;8064;51.142;4.780;2023-11-21T13:15:14;4.03;;;3.57;;
15929;SDS011;8064;51.142;4.780;2023-11-21T13:17:42;4.43;;;3.67;;
15929;SDS011;8064;51.142;4.780;2023-11-21T13:20:09;5.60;;;3.87;;
15929;SDS011;8064;51.142;4.780;2023-11-21T13:22:44;4.63;;;4.07;;
15929;SDS011;8064;51.142;4.780;2023-11-21T13:25:13;5.13;;;3.90;;
15929;SDS011;8064;51.142;4.780;2023-11-21T13:27:43;4.60;;;4.10;;
15929;SDS011;8064;51.142;4.780;2023-11-21T13:30:12;5.13;;;4.63;;
15929;SDS011;8064;51.142;4.780;2023-11-21T13:32:42;4.27;;;3.87;;
15929;SDS011;8064;51.142;4.780;2023-11-21T13:35:09;4.67;;;3.93;;
15929;SDS011;8064;51.142;4.780;2023-11-21T13:37:43;4.57;;;4.17;;
15929;SDS011;8064;51.142;4.780;2023-11-21T13:40:11;4.23;;;3.83;;
15929;SDS011;8064;51.142;4.780;2023-11-21T13:42:40;4.97;;;4.47;;
15929;SDS011;8064;51.142;4.780;2023-11-21T13:45:06;4.00;;;3.60;;
15929;SDS011;8064;51.142;4.780;2023-11-21T13:47:33;4.70;;;4.10;;
15929;SDS011;8064;51.142;4.780;2023-11-21T13:50:01;4.30;;;3.90;;
15929;SDS011;8064;51.142;4.780;2023-11-21T13:52:28;4.63;;;3.63;;
15929;SDS011;8064;51.142;4.780;2023-11-21T13:54:56;3.50;;;3.20;;
15929;SDS011;8064;51.142;4.780;2023-11-21T13:57:23;4.47;;;3.47;;
15929;SDS011;8064;51.142;4.780;2023-11-21T13:59:48;4.03;;;3.73;;
15929;SDS011;8064;51.142;4.780;2023-11-21T14:02:14;5.73;;;4.20;;
15929;SDS011;8064;51.142;4.780;2023-11-21T14:04:43;4.63;;;3.93;;
15929;SDS011;8064;51.142;4.780;2023-11-21T14:07:20;5.23;;;4.63;;
15929;SDS011;8064;51.142;4.780;2023-11-21T14:10:02;5.47;;;4.67;;
15929;SDS011;8064;51.142;4.780;2023-11-21T14:12:29;5.63;;;4.43;;
15929;SDS011;8064;51.142;4.780;2023-11-21T14:14:59;5.73;;;5.13;;
15929;SDS011;8064;51.142;4.780;2023-11-21T14:17:25;5.50;;;4.83;;
15929;SDS011;8064;51.142;4.780;2023-11-21T14:19:52;6.33;;;5.03;;
15929;SDS011;8064;51.142;4.780;2023-11-21T14:22:20;6.60;;;5.37;;
15929;SDS011;8064;51.142;4.780;2023-11-21T14:24:46;6.63;;;5.73;;
15929;SDS011;8064;51.142;4.780;2023-11-21T14:27:13;6.60;;;5.37;;
15929;SDS011;8064;51.142;4.780;2023-11-21T14:29:39;8.30;;;6.13;;
15929;SDS011;8064;51.142;4.780;2023-11-21T14:32:08;11.10;;;6.70;;
15929;SDS011;8064;51.142;4.780;2023-11-21T14:34:34;8.80;;;6.63;;
15929;SDS011;8064;51.142;4.780;2023-11-21T14:37:00;7.00;;;6.17;;
15929;SDS011;8064;51.142;4.780;2023-11-21T14:39:28;7.10;;;6.33;;
15929;SDS011;8064;51.142;4.780;2023-11-21T14:41:54;8.00;;;6.73;;
15929;SDS011;8064;51.142;4.780;2023-11-21T14:44:21;6.77;;;6.03;;
15929;SDS011;8064;51.142;4.780;2023-11-21T14:46:51;7.47;;;6.60;;
15929;SDS011;8064;51.142;4.780;2023-11-21T14:49:19;7.30;;;6.60;;
15929;SDS011;8064;51.142;4.780;2023-11-21T14:51:47;8.17;;;7.37;;
15929;SDS011;8064;51.142;4.780;2023-11-21T14:54:26;8.67;;;7.87;;
15929;SDS011;8064;51.142;4.780;2023-11-21T14:57:07;9.47;;;8.57;;
15929;SDS011;8064;51.142;4.780;2023-11-21T14:59:36;10.63;;;8.50;;